createdAt,value
2023-04-28T00:00:02.552Z,4.1
2023-04-28T00:20:02.350Z,3.9
2023-04-28T00:40:02.927Z,3.7
2023-04-28T01:00:02.510Z,3.4
2023-04-28T01:20:02.355Z,3.2
2023-04-28T01:40:02.817Z,3
2023-04-28T02:00:02.367Z,3
2023-04-28T02:20:02.980Z,2.9
2023-04-28T02:40:02.508Z,2.8
2023-04-28T03:00:02.923Z,2.7
2023-04-28T03:20:02.725Z,2.8
2023-04-28T03:40:03.171Z,2.6
2023-04-28T04:00:02.498Z,2.8
2023-04-28T04:20:03.099Z,3
2023-04-28T04:40:02.544Z,3.2
2023-04-28T05:00:02.944Z,4
2023-04-28T05:20:03.016Z,5
2023-04-28T05:40:02.614Z,5.8
2023-04-28T06:00:03.167Z,6.7
2023-04-28T06:20:02.829Z,8.3
2023-04-28T06:40:02.457Z,10
2023-04-28T07:00:03.046Z,11.6
2023-04-28T07:20:02.697Z,12.9
2023-04-28T07:40:03.179Z,13.9
2023-04-28T08:00:02.978Z,14.8
2023-04-28T08:20:02.645Z,16.1
2023-04-28T08:40:03.116Z,17.8
2023-04-28T09:00:02.564Z,17.8
2023-04-28T09:20:02.545Z,17.8
2023-04-28T09:40:03.276Z,18.4
2023-04-28T10:00:02.940Z,18.5
2023-04-28T10:20:02.579Z,17.9
2023-04-28T10:40:02.995Z,18.3
2023-04-28T11:00:02.461Z,18.9
2023-04-28T11:20:02.259Z,19
2023-04-28T11:40:02.711Z,19.2
2023-04-28T12:00:03.177Z,18.8
2023-04-28T12:20:02.730Z,18.3
2023-04-28T12:40:03.511Z,17.8
2023-04-28T13:00:02.943Z,17.7
2023-04-28T13:20:02.365Z,17.7
2023-04-28T13:40:02.782Z,17.4
2023-04-28T14:00:02.432Z,17.3
2023-04-28T14:20:02.601Z,17.2
2023-04-28T14:40:03.386Z,16.8
2023-04-28T15:00:03.002Z,16.7
2023-04-28T15:20:02.981Z,16.5
2023-04-28T15:40:02.539Z,16.4
2023-04-28T16:00:03.178Z,16.1
2023-04-28T16:20:03.097Z,15.6
2023-04-28T16:40:02.677Z,15.3
2023-04-28T17:00:03.278Z,15
2023-04-28T17:20:02.465Z,14.7
2023-04-28T17:40:02.938Z,14.4
2023-04-28T18:00:02.622Z,14.1
2023-04-28T18:20:02.540Z,13.9
2023-04-28T18:40:03.098Z,13.7
2023-04-28T19:00:03.849Z,13.3
2023-04-28T19:20:02.804Z,13.1
2023-04-28T19:40:02.388Z,12.8
2023-04-28T20:00:03.881Z,12.7
2023-04-28T20:20:02.673Z,12.4
2023-04-28T20:40:03.115Z,12.3
2023-04-28T21:00:02.414Z,12.2
2023-04-28T21:20:03.048Z,12.1
2023-04-28T21:40:02.506Z,12.1
2023-04-28T22:00:02.925Z,12.1
2023-04-28T22:20:02.373Z,11.9
2023-04-28T22:40:02.803Z,11.9
2023-04-28T23:00:02.221Z,11.9
2023-04-28T23:20:02.730Z,11.9
2023-04-28T23:40:02.718Z,11.8
